Boise Air Terminal,Gowen field Boise US
ICAO: KBOI
IATA: BOI
Category: Large
Scheduled Services: Yes

Elevation: 2871 ft
TransAlt. 18000 ft.

Airport Communications:
APP/DEP:119.6
ATIS:123.9
CLNC DEL:125.9
SALT LAKE CITY CNTR:128.05
GND:121.7
ANG OPS:29.87
ARNG OPS:41.5
RDO:122.2
TWR:118.1
UNICOM:122.95

KBOI Zoom In..

If you have problems with the map follow the link
https://www.worldairports.se/pages/airport.php?
ICAO=KBOI

Runways:

(A) RW 10L length 10000 ft width 150 ft
---- / hdg 100

(B) RW 10R length 9763 ft width 150 ft
ILS 111.10 / hdg 100

(C) RW 28L length 9763 ft width 150 ft
---- / hdg 280

(D) RW 28R length 10000 ft width 150 ft
ILS 110.15 / hdg 280

Location; KBOI
Day. 25 / Time. 22.53 Zulu
* Altimeter: 30.14
* Temperature: 06° c. 42.8°f.
* Wind from: 120° Speed 09 kn.
Dewpoint: 04° c.
Visibility: 9 Statute Miles.
Clouds: Few 900 ft.
Clouds: Scattered 3300 ft.
Clouds: Overcast 4300 ft.

KBOI 252253Z 12009KT 9SM FEW009 SCT033 OVC043 06/04 A3014 RMK AO2 SLP217 T00610039


Wind From 120°
Speed 09 kn.

 
 
jpsmedia worldairports.se 2020   terms of use